ADDS METAR Data INFO
IDs: Format: Raw Decoded Include TAF

Data at: 0934 UTC 17 Oct 2017

KCHD 170347Z VRB04KT 10SM CLR 28/05 A3000 RMK LAST
KCHD 170247Z 29004KT 10SM CLR 29/05 A2999
KCHD 170147Z 24006KT 10SM CLR 31/04 A2997
KCHD 170047Z 00000KT 10SM CLR 34/02 A2997
KCHD 162347Z VRB04KT 10SM CLR 36/02 A2998
KCHD 162247Z 36004KT 10SM CLR 36/03 A2999
KCHD 162147Z 10008KT 10SM CLR 36/03 A3000
KCHD 162047Z 10006KT 10SM CLR 36/02 A3001
KCHD 161947Z 06005KT 10SM CLR 35/01 A3005
KCHD 161847Z 08008KT 10SM CLR 34/01 A3009
KCHD 161747Z 05005KT 10SM CLR 31/01 A3012
KCHD 161647Z 00000KT 10SM CLR 30/M01 A3013
KCHD 161547Z 06006KT 10SM CLR 27/00 A3014
KCHD 161447Z 06007KT 10SM CLR 24/04 A3013
KCHD 161347Z 01004KT 10SM CLR 21/00 A3011
KCHD 161247Z 36004KT 10SM CLR 20/01 A3010
KCHD 160347Z VRB05KT 10SM CLR 25/00 A3005 RMK LAST
KCHD 160247Z VRB05KT 10SM CLR 27/M04 A3003
KCHD 160147Z 25007KT 10SM CLR 28/M05 A3002
KCHD 160047Z 28007KT 10SM CLR 32/M07 A3001
KCHD 152347Z 25005KT 10SM CLR 35/M09 A3002
KCHD 152247Z VRB04KT 10SM CLR 35/M09 A3002
KCHD 152147Z VRB05KT 10SM CLR 35/M10 A3003